Time;durP1;ratioP1;P1;durP2;ratioP2;P2;SDS_P1;SDS_P2;PMS_P1;PMS_P2;Temp;Humidity;BMP_temperature;BMP_pressure;BME280_temperature;BME280_humidity;BME280_pressure;Samples;Min_cycle;Max_cycle;Signal;HPM_P1;HPM_P2
2022/06/16 00:00:18;;;;;;;5.20;3.53;;;13.30;99.90;;;;;;5040524;28;20694;-52
2022/06/16 00:02:47;;;;;;;4.60;2.70;;;13.30;99.90;;;;;;5031521;28;20261;-52
2022/06/16 00:05:16;;;;;;;5.23;3.13;;;13.30;99.90;;;;;;5039737;28;20539;-52
2022/06/16 00:07:42;;;;;;;8.47;3.23;;;13.20;99.90;;;;;;5023383;28;20461;-52
2022/06/16 00:10:09;;;;;;;4.53;3.33;;;13.20;99.90;;;;;;5031324;28;20444;-52
2022/06/16 00:12:36;;;;;;;5.20;3.00;;;13.20;99.90;;;;;;5036491;28;20198;-52
2022/06/16 00:15:03;;;;;;;8.67;3.10;;;13.20;99.90;;;;;;5045440;28;20495;-52
2022/06/16 00:17:29;;;;;;;5.73;2.93;;;13.20;99.90;;;;;;5034034;28;20458;-52
2022/06/16 00:19:54;;;;;;;5.80;3.23;;;13.10;99.90;;;;;;5040449;28;20441;-52
2022/06/16 00:22:20;;;;;;;6.27;2.90;;;13.10;99.90;;;;;;5036280;28;20190;-52
2022/06/16 00:24:47;;;;;;;5.63;2.90;;;13.10;99.90;;;;;;5024819;28;20628;-52
2022/06/16 00:27:13;;;;;;;5.23;3.10;;;13.10;99.90;;;;;;5031676;28;20301;-52
2022/06/16 00:29:39;;;;;;;6.60;3.43;;;13.10;99.90;;;;;;5040517;28;20448;-52
2022/06/16 00:32:05;;;;;;;4.47;2.70;;;13.00;99.90;;;;;;5034378;28;20446;-52
2022/06/16 00:34:31;;;;;;;8.93;3.30;;;13.00;99.90;;;;;;5029424;28;20672;-52
2022/06/16 00:36:57;;;;;;;3.07;2.77;;;12.90;99.90;;;;;;5022221;28;20467;-52
2022/06/16 00:39:23;;;;;;;5.00;3.20;;;12.90;99.90;;;;;;5038333;28;20194;-52
2022/06/16 00:41:48;;;;;;;6.73;3.10;;;12.90;99.90;;;;;;5029531;28;20202;-52
2022/06/16 00:44:37;;;;;;;3.80;2.83;;;12.80;99.90;;;;;;5033538;28;20194;-52
2022/06/16 00:47:03;;;;;;;4.20;3.30;;;12.80;99.90;;;;;;5033494;28;20198;-52
2022/06/16 00:49:29;;;;;;;4.03;3.07;;;12.80;99.90;;;;;;5039945;28;20454;-52
2022/06/16 00:51:59;;;;;;;4.97;3.23;;;12.70;99.90;;;;;;5037669;28;20448;-52
2022/06/16 00:54:31;;;;;;;6.30;3.17;;;12.70;99.90;;;;;;5041295;28;20468;-52
2022/06/16 00:57:03;;;;;;;7.07;3.13;;;12.70;99.90;;;;;;5032500;28;20449;-52
2022/06/16 00:59:30;;;;;;;4.47;3.27;;;12.70;99.90;;;;;;5032129;28;20448;-52
2022/06/16 01:01:56;;;;;;;7.43;3.07;;;12.70;99.90;;;;;;5030181;28;20454;-52
2022/06/16 01:07:09;;;;;;;4.77;3.33;;;12.60;99.90;;;;;;5034833;28;20551;-52
2022/06/16 01:09:37;;;;;;;5.73;3.20;;;12.60;99.90;;;;;;5032602;28;20525;-52
2022/06/16 01:15:16;;;;;;;8.93;3.47;;;12.50;99.90;;;;;;5030352;28;20483;-52
2022/06/16 01:17:55;;;;;;;7.53;3.37;;;12.40;99.90;;;;;;5063886;28;20923;-52
2022/06/16 01:20:46;;;;;;;4.60;3.07;;;12.40;99.90;;;;;;5041911;28;20440;-52
2022/06/16 01:23:49;;;;;;;5.73;3.00;;;12.40;99.90;;;;;;5037472;28;20440;-52
2022/06/16 01:27:05;;;;;;;6.60;4.10;;;12.40;99.90;;;;;;5035577;28;20943;-52
2022/06/16 01:29:49;;;;;;;3.83;3.10;;;12.30;99.90;;;;;;5014799;28;20452;-52
2022/06/16 01:32:48;;;;;;;5.67;3.33;;;12.30;99.90;;;;;;5028243;28;20438;-53
2022/06/16 01:35:41;;;;;;;4.70;3.63;;;12.30;99.90;;;;;;5021340;28;20477;-52
2022/06/16 01:38:17;;;;;;;6.50;4.03;;;12.30;99.90;;;;;;5025447;28;20437;-52
2022/06/16 01:40:50;;;;;;;6.77;3.80;;;12.20;99.90;;;;;;5028857;28;20531;-52
2022/06/16 01:43:33;;;;;;;5.43;3.33;;;12.20;99.90;;;;;;5031909;28;20557;-52
2022/06/16 01:46:11;;;;;;;5.33;2.87;;;12.20;99.90;;;;;;5038023;28;20437;-52
2022/06/16 01:48:37;;;;;;;9.97;3.53;;;12.20;99.90;;;;;;5035565;28;20500;-52
2022/06/16 01:51:36;;;;;;;3.00;2.80;;;12.10;99.90;;;;;;5038550;28;20445;-52
2022/06/16 01:54:15;;;;;;;4.57;2.70;;;12.10;99.90;;;;;;5029118;28;20468;-52
2022/06/16 01:56:44;;;;;;;8.07;3.23;;;12.10;99.90;;;;;;5032343;28;20478;-53
2022/06/16 01:59:18;;;;;;;4.93;3.53;;;12.10;99.90;;;;;;5037655;28;20949;-52
2022/06/16 02:01:49;;;;;;;4.40;3.47;;;12.10;99.90;;;;;;5026963;28;20417;-52
2022/06/16 02:04:24;;;;;;;5.40;3.90;;;12.10;99.90;;;;;;5038216;28;20545;-52
2022/06/16 02:06:54;;;;;;;5.47;3.10;;;12.10;99.90;;;;;;5029988;28;20506;-52
2022/06/16 02:09:28;;;;;;;5.50;3.77;;;12.10;99.90;;;;;;5024501;28;20456;-53
2022/06/16 02:11:58;;;;;;;5.03;3.50;;;12.10;99.90;;;;;;5027172;28;20470;-52
2022/06/16 02:14:34;;;;;;;5.00;3.60;;;12.00;99.90;;;;;;5028876;28;20903;-52
2022/06/16 02:17:01;;;;;;;4.20;3.80;;;12.00;99.90;;;;;;5024977;28;20470;-52
2022/06/16 02:19:27;;;;;;;9.53;4.20;;;12.00;99.90;;;;;;5035350;28;20444;-52
2022/06/16 02:21:53;;;;;;;6.43;3.80;;;12.00;99.90;;;;;;5033980;28;20444;-52
2022/06/16 02:24:22;;;;;;;7.17;3.70;;;12.00;99.90;;;;;;5029337;28;20465;-52
2022/06/16 02:26:49;;;;;;;9.43;3.50;;;12.00;99.90;;;;;;5038934;28;20190;-52
2022/06/16 02:29:33;;;;;;;5.00;3.40;;;12.00;99.90;;;;;;5031849;28;20473;-52
2022/06/16 02:32:38;;;;;;;6.73;3.43;;;12.00;99.90;;;;;;5026406;28;20459;-52
2022/06/16 02:35:43;;;;;;;5.63;3.67;;;11.90;99.90;;;;;;5027698;28;20482;-52
2022/06/16 02:38:15;;;;;;;6.87;3.90;;;11.90;99.90;;;;;;5023848;28;20434;-53
2022/06/16 02:41:11;;;;;;;5.43;3.93;;;12.00;99.90;;;;;;5038734;28;20949;-52
2022/06/16 02:43:55;;;;;;;4.27;3.37;;;12.00;99.90;;;;;;5059109;28;20462;-52
2022/06/16 02:46:53;;;;;;;4.67;3.30;;;12.00;99.90;;;;;;5036546;28;20524;-52
2022/06/16 02:49:29;;;;;;;3.63;3.33;;;12.00;99.90;;;;;;5024360;28;21216;-52
2022/06/16 02:52:13;;;;;;;3.93;3.40;;;12.00;99.90;;;;;;5037336;28;20483;-52
2022/06/16 02:54:50;;;;;;;6.33;4.03;;;12.00;99.90;;;;;;5029994;28;20565;-52
2022/06/16 02:57:27;;;;;;;8.00;3.50;;;12.00;99.90;;;;;;5023778;28;20437;-52
2022/06/16 02:59:59;;;;;;;5.30;3.60;;;12.00;99.90;;;;;;5038861;28;20436;-52
2022/06/16 03:02:26;;;;;;;6.27;3.73;;;12.00;99.90;;;;;;5038754;28;20433;-52
2022/06/16 03:04:59;;;;;;;10.83;4.30;;;11.90;99.90;;;;;;5035971;28;20600;-52
2022/06/16 03:07:25;;;;;;;7.50;3.90;;;12.00;99.90;;;;;;5025060;28;20464;-52
2022/06/16 03:09:51;;;;;;;7.80;3.97;;;12.00;99.90;;;;;;5036014;28;20442;-52
2022/06/16 03:12:18;;;;;;;8.13;3.77;;;12.00;99.90;;;;;;5028581;28;20462;-52
2022/06/16 03:14:44;;;;;;;5.27;4.20;;;12.00;99.90;;;;;;5024918;28;20965;-52
2022/06/16 03:17:11;;;;;;;4.77;4.27;;;11.90;1.00;;;;;;5024533;28;20442;-52
2022/06/16 03:19:37;;;;;;;6.97;4.27;;;11.90;1.00;;;;;;5023873;28;20481;-52
2022/06/16 03:22:04;;;;;;;3.90;3.60;;;12.00;1.00;;;;;;5028574;28;20481;-52
2022/06/16 03:24:30;;;;;;;9.00;4.53;;;12.00;1.00;;;;;;5033746;28;20187;-52
2022/06/16 03:26:56;;;;;;;7.77;4.50;;;12.00;1.00;;;;;;5028384;28;20446;-52
2022/06/16 03:29:21;;;;;;;8.23;3.90;;;12.00;1.00;;;;;;5028046;28;20555;-52
2022/06/16 03:31:47;;;;;;;6.37;4.60;;;12.10;1.00;;;;;;5026409;28;20191;-52
2022/06/16 03:34:13;;;;;;;8.17;3.77;;;12.10;99.90;;;;;;5027717;28;20211;-52
2022/06/16 03:36:39;;;;;;;5.00;3.93;;;12.10;99.90;;;;;;5024456;28;20179;-52
2022/06/16 03:39:05;;;;;;;6.10;3.90;;;12.10;99.90;;;;;;5023270;28;20437;-52
2022/06/16 03:41:32;;;;;;;6.80;4.07;;;12.10;99.90;;;;;;5034014;28;20551;-52
2022/06/16 03:43:58;;;;;;;5.93;3.90;;;12.20;99.90;;;;;;5031674;28;20429;-52
2022/06/16 03:46:24;;;;;;;9.37;4.73;;;12.20;99.90;;;;;;5034887;28;20790;-52
2022/06/16 03:48:50;;;;;;;7.50;4.37;;;12.20;99.90;;;;;;5034204;28;20441;-52
2022/06/16 03:51:17;;;;;;;8.00;3.80;;;12.20;99.90;;;;;;5041746;28;20786;-52
2022/06/16 03:53:42;;;;;;;7.37;4.83;;;12.30;99.90;;;;;;5031989;28;20490;-52
2022/06/16 03:56:10;;;;;;;5.97;4.20;;;12.30;99.90;;;;;;5042619;28;20950;-52
2022/06/16 03:58:36;;;;;;;9.70;4.40;;;12.40;99.90;;;;;;5027299;28;20191;-53
2022/06/16 04:01:02;;;;;;;11.37;4.40;;;12.40;99.90;;;;;;5040538;28;20429;-52
2022/06/16 04:06:13;;;;;;;5.83;4.30;;;12.40;99.90;;;;;;5039633;28;20522;-52
2022/06/16 04:08:39;;;;;;;6.20;3.77;;;12.50;99.90;;;;;;5036151;28;20441;-52
2022/06/16 04:11:26;;;;;;;7.60;4.70;;;12.40;99.90;;;;;;5024368;28;20434;-52
2022/06/16 04:13:51;;;;;;;8.07;4.43;;;12.40;99.90;;;;;;5034997;28;20637;-52
2022/06/16 04:16:17;;;;;;;10.63;4.67;;;12.50;99.90;;;;;;5037622;28;20483;-52
2022/06/16 04:18:43;;;;;;;8.63;4.40;;;12.40;99.90;;;;;;5044735;28;20490;-52
2022/06/16 04:21:12;;;;;;;7.90;4.17;;;12.50;99.90;;;;;;5039896;28;20269;-52
2022/06/16 04:23:39;;;;;;;10.03;4.40;;;12.50;99.90;;;;;;5031467;28;20446;-52
2022/06/16 04:26:05;;;;;;;6.30;4.27;;;12.50;99.90;;;;;;5027448;28;21353;-52
2022/06/16 04:28:31;;;;;;;7.13;4.07;;;12.50;99.90;;;;;;5034570;28;20429;-52
2022/06/16 04:30:56;;;;;;;6.30;3.97;;;12.60;99.90;;;;;;5034024;28;20231;-52
2022/06/16 04:33:22;;;;;;;9.07;4.33;;;12.60;99.90;;;;;;5019983;28;20222;-52
2022/06/16 04:35:48;;;;;;;6.73;3.73;;;12.70;99.90;;;;;;5033545;28;20739;-52
2022/06/16 04:38:14;;;;;;;8.80;5.33;;;12.70;99.90;;;;;;5034480;28;20199;-52
2022/06/16 04:40:39;;;;;;;7.70;4.97;;;12.80;99.90;;;;;;5032205;28;20195;-52
2022/06/16 04:43:05;;;;;;;7.27;4.33;;;12.90;99.90;;;;;;5030660;28;20241;-53
2022/06/16 04:45:31;;;;;;;4.80;3.80;;;12.90;99.90;;;;;;5038374;28;20546;-52
2022/06/16 04:47:56;;;;;;;7.80;4.70;;;13.00;99.90;;;;;;5041540;28;20536;-52
2022/06/16 04:50:22;;;;;;;8.37;4.33;;;13.00;99.90;;;;;;5034434;28;20238;-52
2022/06/16 04:52:48;;;;;;;5.10;4.00;;;13.10;99.90;;;;;;5033357;28;20205;-52
2022/06/16 04:55:15;;;;;;;14.27;4.47;;;13.10;99.90;;;;;;5027556;28;20229;-52
2022/06/16 04:57:41;;;;;;;8.10;4.50;;;13.10;99.90;;;;;;5043099;28;20432;-53
2022/06/16 05:00:11;;;;;;;6.97;4.63;;;13.20;99.90;;;;;;5037994;28;20429;-52
2022/06/16 05:02:36;;;;;;;6.30;4.20;;;13.20;99.90;;;;;;5025648;28;20499;-52
2022/06/16 05:05:02;;;;;;;6.17;4.63;;;13.40;99.90;;;;;;5026366;28;20931;-52
2022/06/16 05:07:28;;;;;;;6.20;5.13;;;13.50;99.90;;;;;;5027768;28;20812;-53
2022/06/16 05:09:54;;;;;;;6.37;4.93;;;13.50;99.90;;;;;;5030521;28;20441;-52
2022/06/16 05:12:20;;;;;;;10.70;4.30;;;13.50;99.90;;;;;;5040059;28;20451;-52
2022/06/16 05:14:45;;;;;;;6.53;4.93;;;13.50;99.90;;;;;;5031249;28;20230;-52
2022/06/16 05:17:11;;;;;;;6.80;4.33;;;13.50;99.90;;;;;;5039563;28;20193;-52
2022/06/16 05:19:37;;;;;;;7.30;4.50;;;13.70;99.90;;;;;;5034154;28;20605;-53
2022/06/16 05:22:05;;;;;;;7.10;5.30;;;13.60;99.90;;;;;;5034317;28;20963;-52
2022/06/16 05:24:31;;;;;;;6.00;4.93;;;13.70;99.90;;;;;;5028186;28;20841;-52
2022/06/16 05:26:57;;;;;;;7.90;4.70;;;13.60;99.90;;;;;;5032073;28;20450;-52
2022/06/16 05:29:23;;;;;;;8.53;5.10;;;13.60;99.90;;;;;;5028629;28;20190;-52
2022/06/16 05:31:49;;;;;;;8.23;4.70;;;13.70;99.90;;;;;;5026663;28;20434;-52
2022/06/16 05:34:16;;;;;;;7.30;4.60;;;13.70;99.90;;;;;;5027680;28;20214;-52
2022/06/16 05:36:46;;;;;;;8.80;4.90;;;13.80;99.90;;;;;;5025634;28;20465;-52
2022/06/16 05:39:12;;;;;;;9.37;4.50;;;13.90;99.90;;;;;;5028678;28;20472;-52
2022/06/16 05:41:38;;;;;;;7.10;4.60;;;14.00;99.90;;;;;;5026605;28;20477;-52
2022/06/16 05:44:05;;;;;;;6.30;4.67;;;14.10;99.90;;;;;;5029241;28;20190;-52
2022/06/16 05:46:30;;;;;;;9.37;4.60;;;14.10;99.90;;;;;;5022783;28;20442;-52
2022/06/16 05:48:56;;;;;;;12.80;5.60;;;14.10;99.90;;;;;;5032373;28;20504;-52
2022/06/16 05:51:25;;;;;;;12.77;6.20;;;14.20;99.90;;;;;;5035178;28;20178;-53
2022/06/16 05:53:51;;;;;;;5.50;4.03;;;14.20;99.90;;;;;;5040274;28;20194;-54
2022/06/16 05:56:17;;;;;;;7.00;4.20;;;14.30;99.90;;;;;;5032181;28;20425;-52
2022/06/16 05:58:43;;;;;;;8.00;4.80;;;14.50;99.90;;;;;;5039080;28;20437;-52
2022/06/16 06:01:10;;;;;;;7.57;4.90;;;14.70;99.90;;;;;;5033621;28;20908;-54
2022/06/16 06:03:38;;;;;;;7.23;4.03;;;14.90;99.90;;;;;;5035518;28;20940;-52
2022/06/16 06:06:04;;;;;;;6.53;4.17;;;15.10;99.90;;;;;;5042973;28;20421;-52
2022/06/16 06:16:54;;;;;;;5.73;4.03;;;15.60;99.90;;;;;;5031388;28;20555;-52
2022/06/16 06:19:23;;;;;;;6.30;4.07;;;15.70;99.90;;;;;;5037993;28;20931;-52
2022/06/16 06:22:13;;;;;;;6.07;3.77;;;15.80;99.90;;;;;;5034316;28;20444;-53
2022/06/16 06:24:53;;;;;;;8.10;3.93;;;16.00;99.90;;;;;;5031553;28;20453;-52
2022/06/16 06:27:28;;;;;;;6.90;4.17;;;16.20;99.90;;;;;;5030419;28;20827;-52
2022/06/16 06:29:53;;;;;;;4.63;3.60;;;16.40;99.90;;;;;;5028942;28;20448;-52
2022/06/16 06:32:21;;;;;;;4.83;2.97;;;16.60;99.90;;;;;;5036762;28;20444;-52
2022/06/16 06:34:47;;;;;;;9.40;3.87;;;17.00;99.90;;;;;;5039250;28;20218;-56
2022/06/16 06:37:14;;;;;;;4.07;3.23;;;17.40;99.90;;;;;;5046407;28;20917;-52
2022/06/16 06:39:40;;;;;;;5.53;3.10;;;17.80;99.90;;;;;;5033232;28;20421;-53
2022/06/16 06:42:07;;;;;;;7.10;3.20;;;18.10;99.90;;;;;;5021153;28;20512;-52
2022/06/16 06:44:32;;;;;;;4.10;2.70;;;18.40;99.90;;;;;;5028239;28;20931;-52
2022/06/16 06:46:59;;;;;;;4.73;2.80;;;18.70;99.90;;;;;;5029877;28;20474;-52
2022/06/16 06:49:24;;;;;;;10.47;2.90;;;18.80;99.90;;;;;;5030788;28;20245;-52
2022/06/16 06:51:50;;;;;;;3.70;2.77;;;19.00;99.90;;;;;;5025593;28;20935;-52
2022/06/16 06:54:17;;;;;;;4.37;2.30;;;19.20;99.90;;;;;;5032027;28;20265;-52
2022/06/16 06:56:45;;;;;;;3.77;2.57;;;19.40;99.90;;;;;;5028312;28;20193;-52
2022/06/16 06:59:15;;;;;;;3.17;2.30;;;19.40;99.90;;;;;;5038299;28;20417;-52
2022/06/16 07:01:41;;;;;;;7.40;2.27;;;19.60;99.90;;;;;;5032763;28;20613;-52
2022/06/16 07:04:06;;;;;;;8.40;2.10;;;19.80;99.90;;;;;;5032223;28;20797;-52
2022/06/16 07:06:32;;;;;;;5.13;2.20;;;20.00;99.90;;;;;;5040985;28;20197;-52
2022/06/16 07:08:58;;;;;;;3.70;2.50;;;20.40;99.90;;;;;;5039703;28;20191;-52
2022/06/16 07:11:25;;;;;;;7.03;2.20;;;20.80;99.90;;;;;;5029758;28;20431;-52
2022/06/16 07:13:51;;;;;;;4.00;2.00;;;21.20;99.90;;;;;;5036845;28;20482;-53
2022/06/16 07:16:17;;;;;;;3.03;2.00;;;21.40;99.90;;;;;;5041851;28;20792;-52
2022/06/16 07:18:45;;;;;;;3.90;1.93;;;21.30;99.90;;;;;;5034613;28;20271;-52
2022/06/16 07:21:11;;;;;;;3.63;2.13;;;21.40;99.90;;;;;;5044403;28;20432;-52
2022/06/16 07:23:36;;;;;;;3.70;2.30;;;21.80;99.90;;;;;;5042156;28;20524;-52
2022/06/16 07:26:03;;;;;;;4.33;2.17;;;21.80;99.90;;;;;;5038831;28;20536;-52
2022/06/16 07:28:28;;;;;;;4.83;2.07;;;21.70;99.90;;;;;;5043646;28;20188;-52
2022/06/16 07:30:54;;;;;;;4.20;1.83;;;21.60;99.90;;;;;;5046269;28;20500;-52
2022/06/16 07:33:20;;;;;;;4.90;2.17;;;21.60;99.90;;;;;;5045201;28;20195;-52
2022/06/16 07:35:45;;;;;;;6.60;1.90;;;21.50;99.90;;;;;;5042494;28;20206;-52
2022/06/16 07:38:12;;;;;;;5.27;1.90;;;21.50;99.90;;;;;;5032959;28;20190;-53
2022/06/16 07:40:39;;;;;;;5.20;2.43;;;21.50;99.90;;;;;;5041596;28;20190;-52
2022/06/16 07:43:05;;;;;;;3.43;1.50;;;21.00;99.90;;;;;;5044559;28;20424;-52
2022/06/16 07:45:34;;;;;;;4.00;2.33;;;20.90;99.90;;;;;;5037453;28;20438;-52
2022/06/16 07:48:02;;;;;;;4.57;2.13;;;21.30;99.90;;;;;;5044538;28;20433;-52
2022/06/16 07:50:29;;;;;;;5.50;1.67;;;21.60;99.90;;;;;;5041829;28;20421;-52
2022/06/16 07:52:55;;;;;;;5.10;1.73;;;22.00;99.90;;;;;;5038862;28;20438;-52
2022/06/16 07:55:20;;;;;;;10.60;1.87;;;22.20;99.90;;;;;;5041741;28;20639;-53
2022/06/16 07:57:48;;;;;;;5.23;1.60;;;22.50;99.90;;;;;;5046141;28;20186;-51
2022/06/16 08:00:27;;;;;;;3.30;1.60;;;22.10;99.90;;;;;;5040907;28;20194;-52
2022/06/16 08:02:54;;;;;;;3.63;1.43;;;21.70;99.90;;;;;;5043382;28;20437;-52
2022/06/16 08:05:20;;;;;;;2.87;1.50;;;21.80;99.90;;;;;;5042070;28;20426;-51
2022/06/16 08:07:46;;;;;;;4.93;2.23;;;21.80;99.90;;;;;;5044767;28;20764;-52
2022/06/16 08:10:16;;;;;;;2.33;1.40;;;21.50;99.90;;;;;;5033073;28;20190;-52
2022/06/16 08:12:41;;;;;;;3.67;1.40;;;21.30;99.90;;;;;;5045544;28;20263;-52
2022/06/16 08:15:09;;;;;;;2.30;1.30;;;21.20;99.90;;;;;;5033971;28;20473;-52
2022/06/16 08:17:37;;;;;;;3.40;1.40;;;21.10;99.90;;;;;;5037689;28;20261;-52
2022/06/16 08:20:03;;;;;;;2.53;1.33;;;21.60;99.90;;;;;;5044254;28;20499;-52
2022/06/16 08:22:30;;;;;;;2.97;1.53;;;22.10;99.90;;;;;;5039062;28;20417;-51
2022/06/16 08:24:56;;;;;;;1.77;1.30;;;22.60;99.90;;;;;;5043574;28;20454;-52
2022/06/16 08:27:27;;;;;;;3.80;1.70;;;23.10;99.90;;;;;;5039349;28;20787;-52
2022/06/16 08:29:54;;;;;;;1.30;1.10;;;23.40;99.90;;;;;;5043815;28;20667;-52
2022/06/16 08:32:21;;;;;;;2.63;1.23;;;23.70;99.90;;;;;;5042522;28;20425;-52
2022/06/16 08:34:47;;;;;;;2.30;1.20;;;23.70;99.90;;;;;;5035119;28;20462;-52
2022/06/16 08:37:13;;;;;;;1.60;1.03;;;23.80;99.90;;;;;;5037454;28;20439;-52
2022/06/16 08:39:39;;;;;;;4.97;1.30;;;24.00;99.90;;;;;;5035256;28;20443;-52
2022/06/16 08:42:09;;;;;;;3.30;1.20;;;24.20;99.90;;;;;;5038949;28;20433;-52
2022/06/16 08:44:50;;;;;;;3.53;1.20;;;24.40;99.90;;;;;;5043417;28;20265;-52
2022/06/16 08:47:19;;;;;;;3.87;1.50;;;24.70;99.90;;;;;;5041828;28;20429;-52
2022/06/16 08:50:03;;;;;;;2.57;1.10;;;24.60;99.90;;;;;;5038387;28;20412;-52
2022/06/16 08:52:39;;;;;;;2.13;1.13;;;24.40;99.90;;;;;;5036931;28;20436;-52
2022/06/16 08:55:14;;;;;;;4.50;1.10;;;24.40;99.90;;;;;;5031079;28;20563;-52
2022/06/16 08:58:10;;;;;;;7.13;1.30;;;24.10;99.90;;;;;;5036101;28;20445;-52
2022/06/16 09:00:46;;;;;;;5.40;1.57;;;24.20;99.90;;;;;;5030227;28;20473;-52
2022/06/16 09:03:39;;;;;;;3.33;1.73;;;24.50;99.90;;;;;;5041900;28;20436;-52
2022/06/16 09:06:10;;;;;;;2.83;1.43;;;24.90;99.90;;;;;;5036501;28;20422;-52
2022/06/16 09:09:08;;;;;;;1.90;1.50;;;25.50;99.90;;;;;;5040672;28;20432;-52
2022/06/16 09:11:48;;;;;;;3.10;1.70;;;25.60;99.90;;;;;;5037872;28;20494;-52
2022/06/16 09:15:10;;;;;;;3.10;1.17;;;25.30;99.90;;;;;;5036980;28;20472;-52
2022/06/16 09:17:28;;;;;;;2.40;1.00;;;25.30;99.90;;;;;;5036097;28;20496;-52
2022/06/16 09:20:20;;;;;;;4.33;1.53;;;24.90;99.90;;;;;;5037293;28;20475;-52
2022/06/16 09:23:04;;;;;;;1.83;1.10;;;25.00;99.90;;;;;;5036769;28;21013;-52
2022/06/16 09:25:39;;;;;;;2.40;1.30;;;25.10;99.90;;;;;;5040295;28;20469;-52
2022/06/16 09:28:14;;;;;;;2.20;1.13;;;25.30;99.90;;;;;;5034073;28;20524;-52
2022/06/16 09:30:42;;;;;;;3.43;1.50;;;25.10;99.90;;;;;;5040316;28;20428;-52
2022/06/16 09:33:19;;;;;;;4.37;1.30;;;24.90;99.90;;;;;;5037314;28;20432;-52
2022/06/16 09:35:55;;;;;;;6.10;1.60;;;25.10;99.90;;;;;;5037489;28;20472;-52
2022/06/16 09:38:29;;;;;;;3.53;1.53;;;25.20;99.90;;;;;;5042916;28;20425;-52
2022/06/16 09:42:32;;;;;;;2.80;1.23;;;25.30;99.90;;;;;;5041675;28;20421;-53
2022/06/16 09:43:56;;;;;;;8.87;1.33;;;25.30;99.90;;;;;;5036192;28;20417;-52
2022/06/16 09:46:36;;;;;;;2.77;1.40;;;25.30;99.90;;;;;;5040053;28;20465;-52
2022/06/16 09:49:24;;;;;;;1.83;1.20;;;25.50;99.90;;;;;;5041450;28;20433;-52
2022/06/16 09:52:06;;;;;;;2.90;1.50;;;25.70;99.90;;;;;;5030839;28;21185;-52
2022/06/16 09:54:41;;;;;;;2.60;1.60;;;26.30;99.90;;;;;;5036334;28;20794;-52
2022/06/16 09:57:10;;;;;;;2.33;1.40;;;26.60;99.90;;;;;;5032434;28;20950;-52
2022/06/16 09:59:53;;;;;;;2.57;1.37;;;26.50;99.90;;;;;;5042221;28;20433;-52
2022/06/16 10:02:26;;;;;;;4.23;1.47;;;26.20;99.90;;;;;;5037480;28;20438;-52
2022/06/16 10:04:53;;;;;;;2.40;1.13;;;26.50;99.90;;;;;;5040998;28;20540;-52
2022/06/16 10:07:37;;;;;;;3.80;1.60;;;27.00;99.90;;;;;;5041076;28;21521;-53
2022/06/16 10:10:17;;;;;;;3.40;1.30;;;25.80;99.90;;;;;;5037600;28;20432;-52
2022/06/16 10:12:46;;;;;;;3.30;1.30;;;25.30;99.90;;;;;;5035831;28;20472;-52
2022/06/16 10:15:31;;;;;;;2.73;1.40;;;25.60;99.90;;;;;;5039926;28;20473;-52
2022/06/16 10:17:58;;;;;;;4.60;1.70;;;26.30;99.90;;;;;;5037975;28;21005;-52
2022/06/16 10:20:25;;;;;;;2.07;1.33;;;26.90;99.90;;;;;;5039069;28;20927;-52
2022/06/16 10:23:15;;;;;;;3.23;1.60;;;27.10;99.90;;;;;;5035884;28;20468;-52
2022/06/16 10:25:46;;;;;;;3.43;1.37;;;26.80;99.90;;;;;;5037755;28;20421;-52
2022/06/16 10:28:23;;;;;;;3.53;1.27;;;26.00;99.90;;;;;;5040280;28;20755;-52
2022/06/16 10:30:50;;;;;;;4.40;1.70;;;26.20;99.90;;;;;;5041826;28;21124;-53
2022/06/16 10:33:28;;;;;;;4.70;1.50;;;26.60;99.90;;;;;;5037375;28;20429;-53
2022/06/16 10:35:56;;;;;;;1.87;1.40;;;26.60;99.90;;;;;;5035002;28;20623;-52
2022/06/16 10:38:35;;;;;;;3.30;1.30;;;26.70;99.90;;;;;;5042000;28;20767;-52
2022/06/16 10:41:05;;;;;;;2.60;1.70;;;27.00;99.90;;;;;;5042397;28;20466;-52
2022/06/16 10:43:37;;;;;;;5.63;1.23;;;27.00;99.90;;;;;;5035012;28;20436;-52
2022/06/16 10:46:08;;;;;;;5.57;1.30;;;27.30;99.90;;;;;;5043409;28;20472;-52
2022/06/16 10:48:37;;;;;;;5.40;1.73;;;27.50;99.90;;;;;;5043551;28;20501;-52
2022/06/16 10:51:13;;;;;;;4.27;1.70;;;27.90;99.90;;;;;;5046724;28;20409;-52
2022/06/16 10:53:42;;;;;;;1.43;1.30;;;28.20;99.90;;;;;;5041783;28;20443;-52
2022/06/16 10:56:10;;;;;;;3.20;1.47;;;27.40;99.90;;;;;;5030876;28;20466;-52
2022/06/16 10:59:04;;;;;;;3.00;1.50;;;25.90;99.90;;;;;;5034920;28;20453;-52
2022/06/16 11:01:41;;;;;;;3.60;1.33;;;24.40;99.90;;;;;;5037561;28;20466;-52
2022/06/16 11:04:16;;;;;;;4.77;1.50;;;23.80;99.90;;;;;;5040175;28;20507;-52
2022/06/16 11:06:48;;;;;;;1.80;1.47;;;24.10;99.90;;;;;;5043664;28;21071;-52
2022/06/16 11:09:20;;;;;;;2.40;1.43;;;25.30;99.90;;;;;;5038669;28;20433;-52
2022/06/16 11:12:14;;;;;;;4.37;1.50;;;26.60;99.90;;;;;;5031815;28;20428;-52
2022/06/16 11:14:43;;;;;;;2.67;1.30;;;27.60;99.90;;;;;;5035734;28;20481;-52
2022/06/16 11:17:16;;;;;;;3.83;1.50;;;27.70;99.90;;;;;;5040644;28;20436;-52
2022/06/16 11:19:45;;;;;;;3.80;1.37;;;28.20;99.90;;;;;;5031442;28;20551;-52
2022/06/16 11:22:16;;;;;;;2.60;1.33;;;28.70;99.90;;;;;;5041431;28;20436;-52
2022/06/16 11:24:59;;;;;;;2.23;1.50;;;29.10;99.90;;;;;;5025745;28;20437;-52
2022/06/16 11:27:25;;;;;;;3.10;1.30;;;28.30;99.90;;;;;;5031536;28;20436;-52
2022/06/16 11:29:51;;;;;;;3.67;1.40;;;28.00;99.90;;;;;;5032460;28;20447;-52
2022/06/16 11:32:21;;;;;;;2.30;1.40;;;28.00;99.90;;;;;;5046668;28;20198;-52
2022/06/16 11:34:47;;;;;;;2.90;1.60;;;27.70;99.90;;;;;;5036116;28;21023;-52
2022/06/16 11:37:26;;;;;;;2.83;1.40;;;26.60;99.90;;;;;;5035671;28;20464;-53
2022/06/16 11:40:14;;;;;;;4.20;1.57;;;25.70;99.90;;;;;;5044503;28;20418;-52
2022/06/16 11:43:14;;;;;;;1.60;1.10;;;25.90;99.90;;;;;;5039206;28;20974;-52
2022/06/16 11:45:44;;;;;;;2.97;1.40;;;27.20;99.90;;;;;;5038793;28;20444;-52
2022/06/16 11:48:41;;;;;;;3.80;1.23;;;27.60;99.90;;;;;;5035931;28;20433;-52
2022/06/16 11:51:30;;;;;;;3.23;1.27;;;26.40;99.90;;;;;;5047296;28;20495;-52
2022/06/16 11:54:17;;;;;;;5.90;1.50;;;25.50;99.90;;;;;;5041991;28;20420;-52
2022/06/16 11:56:50;;;;;;;5.33;1.50;;;26.50;99.90;;;;;;5026120;28;20541;-52
2022/06/16 11:59:24;;;;;;;7.53;1.27;;;27.20;99.90;;;;;;5033828;28;20922;-52
2022/06/16 12:02:21;;;;;;;4.43;1.67;;;27.20;99.90;;;;;;5022546;28;20476;-52
2022/06/16 12:05:15;;;;;;;5.23;1.73;;;26.70;99.90;;;;;;5028478;28;20443;-52
2022/06/16 12:08:18;;;;;;;2.20;1.77;;;27.10;99.90;;;;;;5032876;28;20465;-52
2022/06/16 12:11:03;;;;;;;4.23;1.63;;;27.90;99.90;;;;;;5038179;28;20482;-52
2022/06/16 12:13:39;;;;;;;4.00;1.43;;;28.50;99.90;;;;;;5024494;28;20481;-50
2022/06/16 12:16:34;;;;;;;3.77;1.30;;;28.20;99.90;;;;;;5042488;28;20476;-52
2022/06/16 12:19:18;;;;;;;2.00;1.30;;;28.40;99.90;;;;;;5025108;28;20479;-53
2022/06/16 12:21:43;;;;;;;2.93;1.40;;;28.00;99.90;;;;;;5035349;28;21095;-52
2022/06/16 12:24:28;;;;;;;2.17;1.47;;;26.80;99.90;;;;;;5040150;28;20418;-52
2022/06/16 12:27:05;;;;;;;6.63;1.40;;;26.10;99.90;;;;;;5019813;28;20194;-52
2022/06/16 12:29:50;;;;;;;4.07;1.30;;;25.50;99.90;;;;;;5023064;28;20440;-52
2022/06/16 12:32:34;;;;;;;1.93;1.33;;;25.00;99.90;;;;;;5020535;28;20430;-52
2022/06/16 12:35:33;;;;;;;5.23;1.77;;;24.40;99.90;;;;;;5033797;28;20464;-52
2022/06/16 12:38:31;;;;;;;4.67;1.53;;;23.80;99.90;;;;;;5032643;28;20439;-52
2022/06/16 12:41:03;;;;;;;2.30;1.43;;;23.30;99.90;;;;;;5038494;28;20440;-52
2022/06/16 12:43:40;;;;;;;4.83;1.50;;;23.70;99.90;;;;;;5022592;28;20426;-52
2022/06/16 12:46:14;;;;;;;1.87;1.57;;;24.70;99.90;;;;;;5034419;28;20464;-52
2022/06/16 12:48:56;;;;;;;2.20;1.43;;;25.90;99.90;;;;;;5025089;28;20448;-52
2022/06/16 12:51:27;;;;;;;2.70;1.30;;;26.80;99.90;;;;;;5034772;28;20441;-52
2022/06/16 12:54:00;;;;;;;1.30;1.10;;;26.80;99.90;;;;;;5028278;28;20779;-52
2022/06/16 12:56:49;;;;;;;2.83;1.37;;;26.00;99.90;;;;;;5033940;28;20465;-52
2022/06/16 12:59:27;;;;;;;2.80;1.40;;;25.10;99.90;;;;;;5043929;28;20441;-52
2022/06/16 13:01:58;;;;;;;3.93;1.90;;;24.20;99.90;;;;;;5029801;28;20796;-52
2022/06/16 13:04:25;;;;;;;3.10;1.70;;;23.60;99.90;;;;;;5035996;28;20611;-52
2022/06/16 13:06:52;;;;;;;3.57;1.20;;;24.20;99.90;;;;;;5044167;28;20429;-52
2022/06/16 13:09:18;;;;;;;4.30;1.50;;;25.40;99.90;;;;;;5026956;28;20448;-52
2022/06/16 13:11:46;;;;;;;2.07;1.20;;;26.20;99.90;;;;;;5042325;28;20421;-52
2022/06/16 13:14:19;;;;;;;2.00;1.33;;;26.10;99.90;;;;;;5041478;28;20314;-53
2022/06/16 13:16:49;;;;;;;5.43;1.53;;;25.70;99.90;;;;;;5034336;28;20440;-53
2022/06/16 13:19:19;;;;;;;3.63;1.50;;;25.10;99.90;;;;;;5042362;28;20439;-52
2022/06/16 13:21:55;;;;;;;1.97;1.40;;;24.10;99.90;;;;;;5026159;28;20441;-52
2022/06/16 13:24:50;;;;;;;4.83;1.30;;;23.70;99.90;;;;;;5041884;28;20843;-52
2022/06/16 13:27:32;;;;;;;2.00;1.30;;;23.50;99.90;;;;;;5036663;28;20449;-52
2022/06/16 13:30:29;;;;;;;3.07;1.50;;;23.40;99.90;;;;;;5032837;28;20472;-51